Time;durP1;ratioP1;P1;durP2;ratioP2;P2;SDS_P1;SDS_P2;PMS_P1;PMS_P2;Temp;Humidity;BMP_temperature;BMP_pressure;BME280_temperature;BME280_humidity;BME280_pressure;Samples;Min_cycle;Max_cycle;Signal;HPM_P1;HPM_P2
2022/08/26 00:02:25;;;;;;;12.43;8.27;;;;;;;;;;5003447;28;20233;-58
2022/08/26 00:04:51;;;;;;;12.70;8.68;;;;;;;;;;5001306;28;21028;-58
2022/08/26 00:07:19;;;;;;;13.43;7.47;;;;;;;;;;5002943;28;20621;-58
2022/08/26 00:09:45;;;;;;;10.88;8.10;;;;;;;;;;5005136;28;20260;-58
2022/08/26 00:12:12;;;;;;;11.18;7.32;;;;;;;;;;5005672;28;20237;-58
2022/08/26 00:14:38;;;;;;;8.57;7.28;;;;;;;;;;5007475;28;20233;-59
2022/08/26 00:17:05;;;;;;;11.40;7.88;;;;;;;;;;5004307;28;20666;-58
2022/08/26 00:19:31;;;;;;;10.82;7.97;;;;;;;;;;5007138;28;20240;-58
2022/08/26 00:21:57;;;;;;;11.07;7.63;;;;;;;;;;5000137;28;20246;-58
2022/08/26 00:24:25;;;;;;;13.77;8.27;;;;;;;;;;5005587;28;20796;-58
2022/08/26 00:26:51;;;;;;;10.75;8.93;;;;;;;;;;5005991;28;20351;-58
2022/08/26 00:29:18;;;;;;;12.15;9.75;;;;;;;;;;5005925;28;20249;-59
2022/08/26 00:31:44;;;;;;;12.82;9.18;;;;;;;;;;5006479;28;20233;-58
2022/08/26 00:34:10;;;;;;;13.45;8.75;;;;;;;;;;5005111;28;20236;-57
2022/08/26 00:36:38;;;;;;;10.77;8.07;;;;;;;;;;5003268;28;20241;-58
2022/08/26 00:39:05;;;;;;;14.52;8.48;;;;;;;;;;5005061;28;20334;-59
2022/08/26 00:41:33;;;;;;;18.13;7.30;;;;;;;;;;5005883;28;20307;-58
2022/08/26 00:44:00;;;;;;;10.60;8.50;;;;;;;;;;5006673;28;20283;-58
2022/08/26 00:46:28;;;;;;;10.90;8.13;;;;;;;;;;5005856;28;20237;-57
2022/08/26 00:48:59;;;;;;;10.15;8.30;;;;;;;;;;5001087;28;20745;-57
2022/08/26 00:51:27;;;;;;;10.80;8.30;;;;;;;;;;5000218;28;20232;-59
2022/08/26 00:53:54;;;;;;;10.68;7.82;;;;;;;;;;5002025;28;20236;-58
2022/08/26 00:56:22;;;;;;;12.55;8.15;;;;;;;;;;5003800;28;20233;-58
2022/08/26 00:58:50;;;;;;;16.20;8.65;;;;;;;;;;5003967;28;20287;-57
2022/08/26 01:01:17;;;;;;;8.95;8.05;;;;;;;;;;4999699;28;20232;-57
2022/08/26 01:03:44;;;;;;;9.02;8.00;;;;;;;;;;5002674;28;20245;-57
2022/08/26 01:06:11;;;;;;;15.30;9.63;;;;;;;;;;4998961;28;20237;-58
2022/08/26 01:08:38;;;;;;;10.57;8.57;;;;;;;;;;5005788;28;20317;-59
2022/08/26 01:11:05;;;;;;;14.60;8.27;;;;;;;;;;5006226;28;20221;-57
2022/08/26 01:13:32;;;;;;;8.93;8.02;;;;;;;;;;4996039;28;20232;-57
2022/08/26 01:16:02;;;;;;;12.35;8.70;;;;;;;;;;5004029;28;20225;-59
2022/08/26 01:18:29;;;;;;;12.57;8.25;;;;;;;;;;4999828;28;20275;-58
2022/08/26 01:20:58;;;;;;;12.25;8.63;;;;;;;;;;5000277;28;20733;-58
2022/08/26 01:23:28;;;;;;;15.50;10.40;;;;;;;;;;5005867;28;20732;-58
2022/08/26 01:25:56;;;;;;;12.00;9.27;;;;;;;;;;5006517;28;20429;-58
2022/08/26 01:28:24;;;;;;;13.23;9.40;;;;;;;;;;5002107;28;20254;-59
2022/08/26 01:30:52;;;;;;;11.77;8.45;;;;;;;;;;5004774;28;20243;-59
2022/08/26 01:33:21;;;;;;;11.50;9.10;;;;;;;;;;5002226;28;20233;-57
2022/08/26 01:35:48;;;;;;;9.73;8.18;;;;;;;;;;5003698;28;20229;-57
2022/08/26 01:38:14;;;;;;;10.40;9.07;;;;;;;;;;5003339;28;20233;-57
2022/08/26 01:40:42;;;;;;;10.50;8.43;;;;;;;;;;5003572;28;20237;-58
2022/08/26 01:43:13;;;;;;;10.88;8.90;;;;;;;;;;5004227;28;20236;-58
2022/08/26 01:45:40;;;;;;;10.05;8.32;;;;;;;;;;4994405;28;20240;-58
2022/08/26 01:48:10;;;;;;;14.75;8.45;;;;;;;;;;5002735;28;20237;-58
2022/08/26 01:50:37;;;;;;;10.80;8.45;;;;;;;;;;4998748;28;20316;-58
2022/08/26 01:53:06;;;;;;;14.50;8.32;;;;;;;;;;4998435;28;20737;-58
2022/08/26 01:55:34;;;;;;;12.30;8.68;;;;;;;;;;5002953;28;20225;-59
2022/08/26 01:58:04;;;;;;;16.42;8.75;;;;;;;;;;5005279;28;20240;-58
2022/08/26 02:00:30;;;;;;;13.32;8.20;;;;;;;;;;5003704;28;20596;-58
2022/08/26 02:05:37;;;;;;;9.85;8.95;;;;;;;;;;4996256;28;20233;-60
2022/08/26 02:08:04;;;;;;;15.23;9.48;;;;;;;;;;5003501;28;20244;-58
2022/08/26 02:10:31;;;;;;;10.35;8.82;;;;;;;;;;5002138;28;20233;-58
2022/08/26 02:12:57;;;;;;;11.10;9.02;;;;;;;;;;5001749;28;20244;-57
2022/08/26 02:15:25;;;;;;;11.20;8.43;;;;;;;;;;5003610;28;20672;-58
2022/08/26 02:17:52;;;;;;;10.82;9.15;;;;;;;;;;5003698;28;20239;-58
2022/08/26 02:20:19;;;;;;;11.82;8.43;;;;;;;;;;4996892;28;20245;-58
2022/08/26 02:22:46;;;;;;;12.40;8.52;;;;;;;;;;5003536;28;20233;-59
2022/08/26 02:25:17;;;;;;;10.35;9.38;;;;;;;;;;5001844;28;20267;-59
2022/08/26 02:27:43;;;;;;;12.80;8.73;;;;;;;;;;5004070;28;20307;-58
2022/08/26 02:30:12;;;;;;;9.75;8.77;;;;;;;;;;5006231;28;20248;-59
2022/08/26 02:32:40;;;;;;;13.68;9.23;;;;;;;;;;5001075;28;20247;-59
2022/08/26 02:35:07;;;;;;;9.18;8.23;;;;;;;;;;5004322;28;20233;-57
2022/08/26 02:37:34;;;;;;;16.25;10.88;;;;;;;;;;5003711;28;20229;-58
2022/08/26 02:40:00;;;;;;;11.45;9.13;;;;;;;;;;5003348;28;20252;-58
2022/08/26 02:42:27;;;;;;;15.43;10.88;;;;;;;;;;5005165;28;20237;-57
2022/08/26 02:44:53;;;;;;;11.00;9.77;;;;;;;;;;5004383;28;20754;-58
2022/08/26 02:47:19;;;;;;;13.90;9.88;;;;;;;;;;5003107;28;20251;-57
2022/08/26 02:49:47;;;;;;;11.15;10.05;;;;;;;;;;5002892;28;20245;-57
2022/08/26 02:52:13;;;;;;;11.15;10.10;;;;;;;;;;4999237;28;20229;-58
2022/08/26 02:54:40;;;;;;;10.75;9.13;;;;;;;;;;5002191;28;20240;-58
2022/08/26 02:57:06;;;;;;;11.57;9.27;;;;;;;;;;4995786;28;20732;-58
2022/08/26 02:59:34;;;;;;;12.93;8.57;;;;;;;;;;4996382;28;20710;-58
2022/08/26 03:02:01;;;;;;;13.68;9.93;;;;;;;;;;5005511;28;20363;-58
2022/08/26 03:04:29;;;;;;;10.05;9.02;;;;;;;;;;5003108;28;20342;-58
2022/08/26 03:06:57;;;;;;;9.82;8.25;;;;;;;;;;5006741;28;20649;-58
2022/08/26 03:09:24;;;;;;;11.02;9.57;;;;;;;;;;4998969;28;20241;-57
2022/08/26 03:11:50;;;;;;;11.00;9.27;;;;;;;;;;5001481;28;20230;-57
2022/08/26 03:14:17;;;;;;;15.35;9.82;;;;;;;;;;5007144;28;20910;-58
2022/08/26 03:16:43;;;;;;;16.23;9.50;;;;;;;;;;4997905;28;20248;-58
2022/08/26 03:19:10;;;;;;;18.58;9.95;;;;;;;;;;5003786;28;20241;-58
2022/08/26 03:21:37;;;;;;;11.90;9.70;;;;;;;;;;5003299;28;20332;-57
2022/08/26 03:24:05;;;;;;;12.77;8.95;;;;;;;;;;5004434;28;20233;-57
2022/08/26 03:26:32;;;;;;;15.52;10.35;;;;;;;;;;5000507;28;20283;-58
2022/08/26 03:31:42;;;;;;;13.70;9.55;;;;;;;;;;4999028;28;20247;-58
2022/08/26 03:34:08;;;;;;;11.48;10.18;;;;;;;;;;5007937;28;20611;-59
2022/08/26 03:36:34;;;;;;;12.40;8.88;;;;;;;;;;5006827;28;20233;-58
2022/08/26 03:39:01;;;;;;;14.90;10.52;;;;;;;;;;5006818;28;20240;-58
2022/08/26 03:41:31;;;;;;;14.18;9.30;;;;;;;;;;5007757;28;20240;-58
2022/08/26 03:43:58;;;;;;;15.30;9.93;;;;;;;;;;5006282;28;20245;-58
2022/08/26 03:46:24;;;;;;;10.80;9.20;;;;;;;;;;5001565;28;20241;-58
2022/08/26 03:48:50;;;;;;;14.98;9.75;;;;;;;;;;5006676;28;20233;-58
2022/08/26 03:51:18;;;;;;;13.15;10.45;;;;;;;;;;5000255;28;20251;-58
2022/08/26 03:53:45;;;;;;;14.13;10.00;;;;;;;;;;5008285;28;20664;-58
2022/08/26 03:56:11;;;;;;;15.63;9.65;;;;;;;;;;5005836;28;20659;-58
2022/08/26 03:58:39;;;;;;;13.68;10.60;;;;;;;;;;5003420;28;21004;-59
2022/08/26 04:01:06;;;;;;;18.35;10.63;;;;;;;;;;5005380;28;20239;-58
2022/08/26 04:06:16;;;;;;;14.10;10.20;;;;;;;;;;5004762;28;20259;-58
2022/08/26 04:08:43;;;;;;;11.93;9.70;;;;;;;;;;5006254;28;20248;-57
2022/08/26 04:11:15;;;;;;;10.52;9.52;;;;;;;;;;5010143;28;20233;-58
2022/08/26 04:13:43;;;;;;;13.07;9.75;;;;;;;;;;5000143;28;20238;-57
2022/08/26 04:16:09;;;;;;;13.98;10.27;;;;;;;;;;5005679;28;20236;-59
2022/08/26 04:18:37;;;;;;;10.38;9.38;;;;;;;;;;4999274;28;20239;-57
2022/08/26 04:21:03;;;;;;;14.05;10.43;;;;;;;;;;5005403;28;20320;-58
2022/08/26 04:23:29;;;;;;;14.15;10.13;;;;;;;;;;4998415;28;20244;-57
2022/08/26 04:25:56;;;;;;;11.55;10.35;;;;;;;;;;5004051;28;20237;-58
2022/08/26 04:28:23;;;;;;;23.15;13.57;;;;;;;;;;5003783;28;20445;-57
2022/08/26 04:30:51;;;;;;;13.40;10.90;;;;;;;;;;5005801;28;20309;-57
2022/08/26 04:33:17;;;;;;;15.20;11.27;;;;;;;;;;5006201;28;20247;-57
2022/08/26 04:35:44;;;;;;;15.55;11.75;;;;;;;;;;5004914;28;20240;-59
2022/08/26 04:38:10;;;;;;;18.92;11.13;;;;;;;;;;5005627;28;20233;-57
2022/08/26 04:40:37;;;;;;;18.95;11.48;;;;;;;;;;5006599;28;20337;-59
2022/08/26 04:43:04;;;;;;;15.77;11.13;;;;;;;;;;5003255;28;20229;-58
2022/08/26 04:45:30;;;;;;;11.70;10.60;;;;;;;;;;5005837;28;20295;-58
2022/08/26 04:47:58;;;;;;;16.80;10.85;;;;;;;;;;5004288;28;20618;-58
2022/08/26 04:50:25;;;;;;;15.60;10.43;;;;;;;;;;5002640;28;20237;-58
2022/08/26 04:52:52;;;;;;;15.30;10.43;;;;;;;;;;5003935;28;20229;-58
2022/08/26 04:55:18;;;;;;;11.40;10.20;;;;;;;;;;5004000;28;20237;-58
2022/08/26 04:57:44;;;;;;;16.85;10.55;;;;;;;;;;5003401;28;20708;-58
2022/08/26 05:00:12;;;;;;;12.48;10.98;;;;;;;;;;5008498;28;20236;-58
2022/08/26 05:02:38;;;;;;;13.30;10.18;;;;;;;;;;5005600;28;20320;-58
2022/08/26 05:05:06;;;;;;;21.85;10.65;;;;;;;;;;5004066;28;20252;-58
2022/08/26 05:07:33;;;;;;;12.75;9.32;;;;;;;;;;4996630;28;20237;-58
2022/08/26 05:10:00;;;;;;;18.17;11.00;;;;;;;;;;5004357;28;20237;-59
2022/08/26 05:12:26;;;;;;;16.77;11.10;;;;;;;;;;5002236;28;20232;-57
2022/08/26 05:14:53;;;;;;;12.68;9.73;;;;;;;;;;5005493;28;20237;-59
2022/08/26 05:17:19;;;;;;;16.33;10.50;;;;;;;;;;5010352;28;20609;-57
2022/08/26 05:19:45;;;;;;;15.18;11.43;;;;;;;;;;5004506;28;20233;-58
2022/08/26 05:22:14;;;;;;;14.10;9.32;;;;;;;;;;5001129;28;20753;-58
2022/08/26 05:24:40;;;;;;;13.55;10.18;;;;;;;;;;5004209;28;20229;-58
2022/08/26 05:27:07;;;;;;;14.05;10.65;;;;;;;;;;4997107;28;20288;-57
2022/08/26 05:29:33;;;;;;;19.48;11.55;;;;;;;;;;5005574;28;20349;-58
2022/08/26 05:32:00;;;;;;;19.13;12.45;;;;;;;;;;4995019;23;20238;-57
2022/08/26 05:34:26;;;;;;;17.00;11.60;;;;;;;;;;4962963;28;20249;-58
2022/08/26 05:36:53;;;;;;;16.10;11.73;;;;;;;;;;4967724;28;20608;-57
2022/08/26 05:39:22;;;;;;;18.15;12.15;;;;;;;;;;4955239;28;20281;-58
2022/08/26 05:41:48;;;;;;;12.57;11.13;;;;;;;;;;4962026;28;20273;-56
2022/08/26 05:44:17;;;;;;;17.50;11.00;;;;;;;;;;4950974;28;20289;-58
2022/08/26 05:46:44;;;;;;;20.80;13.02;;;;;;;;;;4960525;28;20354;-57
2022/08/26 05:49:11;;;;;;;14.50;12.55;;;;;;;;;;4953250;28;20274;-57
2022/08/26 05:51:38;;;;;;;15.63;11.82;;;;;;;;;;4960116;28;20249;-58
2022/08/26 05:54:05;;;;;;;19.83;12.75;;;;;;;;;;4963204;28;20241;-58
2022/08/26 05:56:34;;;;;;;17.27;12.10;;;;;;;;;;4960385;28;20289;-57
2022/08/26 05:59:01;;;;;;;22.38;12.90;;;;;;;;;;4959475;28;20235;-57
2022/08/26 06:01:28;;;;;;;16.92;11.82;;;;;;;;;;4956748;28;20729;-57
2022/08/26 06:03:55;;;;;;;15.90;11.35;;;;;;;;;;4962352;28;20242;-56
2022/08/26 06:06:24;;;;;;;19.58;13.30;;;;;;;;;;4955473;28;20239;-58
2022/08/26 06:08:51;;;;;;;19.05;11.57;;;;;;;;;;4963262;28;20241;-58
2022/08/26 06:11:18;;;;;;;19.00;11.25;;;;;;;;;;4955118;28;20690;-56
2022/08/26 06:13:46;;;;;;;19.33;13.05;;;;;;;;;;4960274;28;20226;-57
2022/08/26 06:16:14;;;;;;;25.77;13.73;;;;;;;;;;4955561;28;20650;-57
2022/08/26 06:18:41;;;;;;;16.80;13.02;;;;;;;;;;4959910;28;20243;-56
2022/08/26 06:21:12;;;;;;;20.17;12.68;;;;;;;;;;4952324;28;20250;-57
2022/08/26 06:26:22;;;;;;;13.60;11.27;;;;;;;;;;4958634;28;20242;-57
2022/08/26 06:28:50;;;;;;;18.33;11.43;;;;;;;;;;4953226;28;20239;-57
2022/08/26 06:31:16;;;;;;;18.02;11.90;;;;;;;;;;4964127;28;20242;-58
2022/08/26 06:33:43;;;;;;;13.93;11.73;;;;;;;;;;4957080;28;20238;-56
2022/08/26 06:36:14;;;;;;;13.48;9.80;;;;;;;;;;4960172;28;20287;-59
2022/08/26 06:38:40;;;;;;;21.52;13.20;;;;;;;;;;4965127;28;20238;-57
2022/08/26 06:41:09;;;;;;;18.48;11.75;;;;;;;;;;4970718;28;20244;-57
2022/08/26 06:43:35;;;;;;;14.05;10.20;;;;;;;;;;4960532;28;20258;-57
2022/08/26 06:46:05;;;;;;;21.05;12.07;;;;;;;;;;4958573;28;20709;-58
2022/08/26 06:48:31;;;;;;;15.15;10.50;;;;;;;;;;4958222;28;20720;-57
2022/08/26 06:51:04;;;;;;;13.98;10.88;;;;;;;;;;4960110;28;20238;-57
2022/08/26 06:53:31;;;;;;;21.52;10.30;;;;;;;;;;4965584;28;20724;-57
2022/08/26 06:55:57;;;;;;;15.10;10.32;;;;;;;;;;4961240;28;20457;-57
2022/08/26 06:58:23;;;;;;;15.43;11.68;;;;;;;;;;4957534;28;20980;-58
2022/08/26 07:00:50;;;;;;;14.20;10.00;;;;;;;;;;4957328;28;20234;-58
2022/08/26 07:03:17;;;;;;;22.73;11.27;;;;;;;;;;4964380;28;20237;-57
2022/08/26 07:05:44;;;;;;;15.25;10.70;;;;;;;;;;4959912;28;20242;-58
2022/08/26 07:08:10;;;;;;;11.35;9.48;;;;;;;;;;4956110;28;20235;-58
2022/08/26 07:10:36;;;;;;;27.13;12.25;;;;;;;;;;4959412;28;20233;-57
2022/08/26 07:13:03;;;;;;;19.65;9.90;;;;;;;;;;4966017;28;20265;-57
2022/08/26 07:15:29;;;;;;;16.88;11.27;;;;;;;;;;4962460;28;21088;-58
2022/08/26 07:17:55;;;;;;;18.88;10.13;;;;;;;;;;4957669;28;20718;-56
2022/08/26 07:20:23;;;;;;;13.93;9.77;;;;;;;;;;4955207;28;20250;-57
2022/08/26 07:22:49;;;;;;;20.17;10.68;;;;;;;;;;4962061;28;20242;-58
2022/08/26 07:25:15;;;;;;;16.42;10.05;;;;;;;;;;4965984;28;20238;-57
2022/08/26 07:27:42;;;;;;;21.90;10.52;;;;;;;;;;4956488;28;20246;-57
2022/08/26 07:30:09;;;;;;;17.25;9.57;;;;;;;;;;4964928;28;20701;-58
2022/08/26 07:32:36;;;;;;;17.30;10.73;;;;;;;;;;4963471;28;20230;-56
2022/08/26 07:35:02;;;;;;;18.60;10.07;;;;;;;;;;4964414;28;20337;-58
2022/08/26 07:37:30;;;;;;;16.08;11.15;;;;;;;;;;4964542;28;20243;-57
2022/08/26 07:39:56;;;;;;;14.85;9.57;;;;;;;;;;4965232;28;20630;-57
2022/08/26 07:42:23;;;;;;;18.63;10.80;;;;;;;;;;4956066;28;20436;-57
2022/08/26 07:44:49;;;;;;;20.50;11.80;;;;;;;;;;4967660;28;20264;-57
2022/08/26 07:47:16;;;;;;;17.58;9.50;;;;;;;;;;4956572;28;20235;-57
2022/08/26 07:49:42;;;;;;;23.00;10.10;;;;;;;;;;4965615;28;20230;-58
2022/08/26 07:52:08;;;;;;;14.65;9.20;;;;;;;;;;4965591;28;20243;-58
2022/08/26 07:54:39;;;;;;;16.17;10.75;;;;;;;;;;4958562;28;20231;-57
2022/08/26 07:57:06;;;;;;;22.30;9.40;;;;;;;;;;4953345;28;20241;-56
2022/08/26 07:59:32;;;;;;;20.35;10.63;;;;;;;;;;4960923;28;20615;-58
2022/08/26 08:01:59;;;;;;;23.05;9.40;;;;;;;;;;4960593;28;20691;-58
2022/08/26 08:04:26;;;;;;;17.52;9.52;;;;;;;;;;4959518;28;20231;-57
2022/08/26 08:06:52;;;;;;;13.75;8.95;;;;;;;;;;4949154;28;20230;-57
2022/08/26 08:09:18;;;;;;;17.65;12.43;;;;;;;;;;4956561;28;20239;-57
2022/08/26 08:11:46;;;;;;;13.75;9.75;;;;;;;;;;4958659;28;20235;-56
2022/08/26 08:14:12;;;;;;;19.33;9.20;;;;;;;;;;4961832;28;20231;-56
2022/08/26 08:16:39;;;;;;;19.15;8.30;;;;;;;;;;4965344;28;20691;-57
2022/08/26 08:19:06;;;;;;;18.65;8.93;;;;;;;;;;4963167;28;20727;-58
2022/08/26 08:21:32;;;;;;;16.90;9.20;;;;;;;;;;4958618;28;20242;-57
2022/08/26 08:23:59;;;;;;;13.25;8.43;;;;;;;;;;4955918;28;20234;-56
2022/08/26 08:26:26;;;;;;;20.88;9.50;;;;;;;;;;4958347;28;20266;-56
2022/08/26 08:28:55;;;;;;;18.67;10.07;;;;;;;;;;4953259;28;20238;-56
2022/08/26 08:31:22;;;;;;;18.38;9.70;;;;;;;;;;4952942;28;20739;-57
2022/08/26 08:33:49;;;;;;;18.58;9.65;;;;;;;;;;4955506;28;20239;-57
2022/08/26 08:36:15;;;;;;;23.48;8.45;;;;;;;;;;4947352;28;20223;-56
2022/08/26 08:38:42;;;;;;;15.75;8.73;;;;;;;;;;4944746;28;20235;-55
2022/08/26 08:41:18;;;;;;;17.33;8.80;;;;;;;;;;4959955;28;20237;-57
2022/08/26 08:43:46;;;;;;;19.52;8.90;;;;;;;;;;4956837;28;20243;-57
2022/08/26 08:46:18;;;;;;;14.82;7.78;;;;;;;;;;4953664;28;20235;-59
2022/08/26 08:48:46;;;;;;;16.38;8.68;;;;;;;;;;4957284;28;20617;-57
2022/08/26 08:51:16;;;;;;;14.05;8.25;;;;;;;;;;4956710;28;20246;-56
2022/08/26 08:53:43;;;;;;;23.02;10.23;;;;;;;;;;4956086;28;20592;-57
2022/08/26 08:56:11;;;;;;;15.30;9.43;;;;;;;;;;4950288;28;20246;-56
2022/08/26 08:58:46;;;;;;;18.55;8.13;;;;;;;;;;4958889;28;20231;-56
2022/08/26 09:01:21;;;;;;;15.73;7.57;;;;;;;;;;4955372;28;20253;-56
2022/08/26 09:03:49;;;;;;;13.68;7.05;;;;;;;;;;4959079;28;20230;-55
2022/08/26 09:06:19;;;;;;;14.32;6.93;;;;;;;;;;4950845;28;20238;-57
2022/08/26 09:08:46;;;;;;;19.08;7.65;;;;;;;;;;4958486;28;20659;-58
2022/08/26 09:11:13;;;;;;;19.92;7.90;;;;;;;;;;4955744;28;20247;-56
2022/08/26 09:13:44;;;;;;;14.65;6.20;;;;;;;;;;4957548;28;20235;-55
2022/08/26 09:16:13;;;;;;;13.93;7.15;;;;;;;;;;4958115;28;20234;-60
2022/08/26 09:18:49;;;;;;;22.98;8.15;;;;;;;;;;4965920;28;20592;-57
2022/08/26 09:21:16;;;;;;;21.13;7.78;;;;;;;;;;4961612;28;20257;-56
2022/08/26 09:23:43;;;;;;;18.35;7.25;;;;;;;;;;4944328;28;20290;-56
2022/08/26 09:26:14;;;;;;;22.50;8.80;;;;;;;;;;4953988;28;20235;-56
2022/08/26 09:28:42;;;;;;;19.95;7.60;;;;;;;;;;4957323;28;20242;-56
2022/08/26 09:31:11;;;;;;;16.23;7.18;;;;;;;;;;4952804;28;20266;-56
2022/08/26 09:33:38;;;;;;;20.33;8.20;;;;;;;;;;4956411;28;20254;-57
2022/08/26 09:36:17;;;;;;;9.65;7.20;;;;;;;;;;4959456;28;20313;-56
2022/08/26 09:38:44;;;;;;;21.83;7.38;;;;;;;;;;4954086;28;20235;-57
2022/08/26 09:41:21;;;;;;;19.70;8.45;;;;;;;;;;4951894;28;20691;-57
2022/08/26 09:44:07;;;;;;;18.17;8.13;;;;;;;;;;4953977;28;20234;-56
2022/08/26 09:46:34;;;;;;;20.92;8.93;;;;;;;;;;4954595;28;20233;-55
2022/08/26 09:49:20;;;;;;;15.45;7.65;;;;;;;;;;4948139;28;20238;-56
2022/08/26 09:51:48;;;;;;;22.63;8.45;;;;;;;;;;4956788;28;20250;-57
2022/08/26 09:54:25;;;;;;;12.02;7.43;;;;;;;;;;4956505;28;20313;-56
2022/08/26 09:56:51;;;;;;;19.88;8.90;;;;;;;;;;4956179;28;20236;-56
2022/08/26 09:59:29;;;;;;;13.25;7.80;;;;;;;;;;4958179;28;20249;-56
2022/08/26 10:01:57;;;;;;;20.15;8.05;;;;;;;;;;4955731;28;20325;-57
2022/08/26 10:04:25;;;;;;;19.80;7.72;;;;;;;;;;4956463;28;20250;-56
2022/08/26 10:06:57;;;;;;;16.00;7.72;;;;;;;;;;4950460;28;20277;-57
2022/08/26 10:09:24;;;;;;;15.13;7.55;;;;;;;;;;4951212;28;20660;-56
2022/08/26 10:11:52;;;;;;;13.27;7.00;;;;;;;;;;4954280;28;20242;-56
2022/08/26 10:14:20;;;;;;;17.33;7.78;;;;;;;;;;4955451;28;20245;-56
2022/08/26 10:16:49;;;;;;;19.17;8.00;;;;;;;;;;4956925;28;20241;-56
2022/08/26 10:19:19;;;;;;;21.27;7.57;;;;;;;;;;4950828;28;20241;-55
2022/08/26 10:21:49;;;;;;;15.00;7.93;;;;;;;;;;4957869;28;20239;-55
2022/08/26 10:24:20;;;;;;;16.85;7.72;;;;;;;;;;4954912;28;20609;-57
2022/08/26 10:26:50;;;;;;;25.67;7.03;;;;;;;;;;4955981;28;20244;-56
2022/08/26 10:29:19;;;;;;;16.33;6.28;;;;;;;;;;4958691;28;20243;-56
2022/08/26 10:31:48;;;;;;;16.85;7.45;;;;;;;;;;4954365;28;20503;-56
2022/08/26 10:34:16;;;;;;;19.17;7.35;;;;;;;;;;4953061;28;20235;-56
2022/08/26 10:36:55;;;;;;;15.32;7.50;;;;;;;;;;4961883;28;20865;-56
2022/08/26 10:39:25;;;;;;;16.23;7.15;;;;;;;;;;4960274;28;20249;-56
2022/08/26 10:41:53;;;;;;;16.38;6.65;;;;;;;;;;4962494;28;20270;-55
2022/08/26 10:44:20;;;;;;;18.98;7.05;;;;;;;;;;4962023;28;20235;-57
2022/08/26 10:46:48;;;;;;;15.13;6.57;;;;;;;;;;4960033;28;20239;-56
2022/08/26 10:49:16;;;;;;;12.07;7.80;;;;;;;;;;4956607;28;20243;-57
2022/08/26 10:51:47;;;;;;;13.05;6.43;;;;;;;;;;4955995;28;20243;-57
2022/08/26 10:54:15;;;;;;;17.98;7.63;;;;;;;;;;4957292;28;20234;-56
2022/08/26 10:56:49;;;;;;;20.58;7.85;;;;;;;;;;4955828;28;20239;-56
2022/08/26 10:59:21;;;;;;;26.92;7.55;;;;;;;;;;4957163;28;20235;-56
2022/08/26 11:01:53;;;;;;;11.88;7.63;;;;;;;;;;4963470;28;20243;-57
2022/08/26 11:04:23;;;;;;;15.57;7.70;;;;;;;;;;4956717;28;20738;-57
2022/08/26 11:07:09;;;;;;;20.60;8.57;;;;;;;;;;4956024;28;20254;-56
2022/08/26 11:09:43;;;;;;;16.00;7.57;;;;;;;;;;4958945;28;20234;-57
2022/08/26 11:12:31;;;;;;;16.38;7.38;;;;;;;;;;4952447;28;20243;-56
2022/08/26 11:14:57;;;;;;;17.70;8.23;;;;;;;;;;4938761;28;20663;-55
2022/08/26 11:17:42;;;;;;;17.38;7.43;;;;;;;;;;4939101;28;20235;-56
2022/08/26 11:20:08;;;;;;;16.90;8.80;;;;;;;;;;4959150;28;20235;-57
2022/08/26 11:22:37;;;;;;;13.32;7.82;;;;;;;;;;4949899;28;20240;-55
2022/08/26 11:25:10;;;;;;;17.58;8.23;;;;;;;;;;4950018;28;20235;-56
2022/08/26 11:28:01;;;;;;;22.17;8.80;;;;;;;;;;4955009;28;20254;-57
2022/08/26 11:30:51;;;;;;;12.68;7.45;;;;;;;;;;4954493;28;20719;-56
2022/08/26 11:33:36;;;;;;;16.10;8.20;;;;;;;;;;4953328;28;20238;-55
2022/08/26 11:36:04;;;;;;;18.48;7.93;;;;;;;;;;4957254;28;20613;-57
2022/08/26 11:38:32;;;;;;;11.90;8.45;;;;;;;;;;4948685;28;20235;-57
2022/08/26 11:41:10;;;;;;;14.15;7.43;;;;;;;;;;4955963;28;20270;-55
2022/08/26 11:43:37;;;;;;;7.82;5.32;;;;;;;;;;4955218;28;20243;-55
2022/08/26 11:46:04;;;;;;;14.25;3.85;;;;;;;;;;4953660;28;20238;-55
2022/08/26 11:48:33;;;;;;;9.45;3.60;;;;;;;;;;4956969;28;20239;-56
2022/08/26 11:51:00;;;;;;;9.15;3.53;;;;;;;;;;4951464;28;20637;-57
2022/08/26 11:53:31;;;;;;;7.93;2.92;;;;;;;;;;4953427;28;20238;-56
2022/08/26 11:55:58;;;;;;;11.40;3.75;;;;;;;;;;4954584;28;20294;-57
2022/08/26 11:58:25;;;;;;;7.00;3.58;;;;;;;;;;4957404;28;20769;-56
2022/08/26 12:00:54;;;;;;;8.55;3.97;;;;;;;;;;4955272;28;20242;-56
2022/08/26 12:03:23;;;;;;;7.63;3.45;;;;;;;;;;4948799;28;20238;-57
2022/08/26 12:05:50;;;;;;;7.85;3.42;;;;;;;;;;4953944;28;20291;-56
2022/08/26 12:08:20;;;;;;;8.93;4.03;;;;;;;;;;4952765;28;21813;-56
2022/08/26 12:10:48;;;;;;;5.82;4.30;;;;;;;;;;4950838;28;20230;-56
2022/08/26 12:13:22;;;;;;;10.35;4.10;;;;;;;;;;4945853;28;20657;-57
2022/08/26 12:15:52;;;;;;;5.65;3.25;;;;;;;;;;4948522;28;20722;-57
2022/08/26 12:18:19;;;;;;;5.00;4.13;;;;;;;;;;4961516;28;20242;-56
2022/08/26 12:20:46;;;;;;;5.30;4.55;;;;;;;;;;4964713;28;20238;-57
2022/08/26 12:23:26;;;;;;;6.30;4.72;;;;;;;;;;4957690;28;20246;-57
2022/08/26 12:26:02;;;;;;;9.82;5.05;;;;;;;;;;4956106;28;20238;-58
2022/08/26 12:28:29;;;;;;;13.02;4.93;;;;;;;;;;4950812;28;20231;-57
2022/08/26 12:31:00;;;;;;;7.60;4.15;;;;;;;;;;4953458;28;20928;-56
2022/08/26 12:33:27;;;;;;;7.35;4.68;;;;;;;;;;4955188;28;20246;-57
2022/08/26 12:35:54;;;;;;;7.57;4.55;;;;;;;;;;4963169;28;20234;-56
2022/08/26 12:38:20;;;;;;;9.52;4.47;;;;;;;;;;4955407;28;20250;-55
2022/08/26 12:40:48;;;;;;;4.30;4.00;;;;;;;;;;4955232;28;20725;-55
2022/08/26 12:43:35;;;;;;;6.10;3.70;;;;;;;;;;4960835;28;20245;-56
2022/08/26 12:46:03;;;;;;;5.07;3.95;;;;;;;;;;4952759;28;20234;-57
2022/08/26 12:48:30;;;;;;;5.13;4.18;;;;;;;;;;4957043;28;20393;-56
2022/08/26 12:50:57;;;;;;;4.80;3.97;;;;;;;;;;4960975;28;20238;-55
2022/08/26 12:53:25;;;;;;;5.70;4.13;;;;;;;;;;4953034;28;20250;-55
2022/08/26 12:55:52;;;;;;;5.03;4.43;;;;;;;;;;4951461;28;20242;-56
2022/08/26 12:58:24;;;;;;;5.82;4.40;;;;;;;;;;4962898;28;20289;-56
2022/08/26 13:00:51;;;;;;;5.07;4.55;;;;;;;;;;4951330;28;20246;-56
2022/08/26 13:03:39;;;;;;;10.02;5.10;;;;;;;;;;4958387;28;20244;-55
2022/08/26 13:06:24;;;;;;;5.35;4.50;;;;;;;;;;4950601;28;20289;-56
2022/08/26 13:08:51;;;;;;;9.93;5.75;;;;;;;;;;4960405;28;20290;-56
2022/08/26 13:11:19;;;;;;;7.00;5.85;;;;;;;;;;4959423;28;20243;-55
2022/08/26 13:13:46;;;;;;;9.43;6.05;;;;;;;;;;4953518;28;20229;-58
2022/08/26 13:16:12;;;;;;;7.97;5.22;;;;;;;;;;4956790;28;20241;-59
2022/08/26 13:18:40;;;;;;;8.82;5.07;;;;;;;;;;4957659;28;20368;-56
2022/08/26 13:21:11;;;;;;;10.52;5.47;;;;;;;;;;4956247;28;20241;-57
2022/08/26 13:23:38;;;;;;;9.45;6.00;;;;;;;;;;4947513;28;20789;-56
2022/08/26 13:26:04;;;;;;;8.23;6.32;;;;;;;;;;4955574;28;20597;-57
2022/08/26 13:28:31;;;;;;;10.55;6.30;;;;;;;;;;4952719;28;20230;-56
2022/08/26 13:30:57;;;;;;;10.95;7.07;;;;;;;;;;4964467;28;20834;-58
2022/08/26 13:33:24;;;;;;;6.15;5.60;;;;;;;;;;4958184;28;20243;-57
2022/08/26 13:35:51;;;;;;;10.07;7.03;;;;;;;;;;4953813;28;20761;-58
2022/08/26 13:38:18;;;;;;;15.38;6.60;;;;;;;;;;4962056;28;20238;-56
2022/08/26 13:40:44;;;;;;;10.15;6.07;;;;;;;;;;4958547;28;20238;-60
2022/08/26 13:43:11;;;;;;;10.07;6.30;;;;;;;;;;4960419;28;20238;-58
2022/08/26 13:45:37;;;;;;;12.02;6.82;;;;;;;;;;4955715;28;20709;-59
2022/08/26 13:48:04;;;;;;;7.93;7.20;;;;;;;;;;4958516;28;20231;-58
2022/08/26 13:50:31;;;;;;;11.65;7.60;;;;;;;;;;4951585;28;20231;-60
2022/08/26 13:52:58;;;;;;;8.10;7.40;;;;;;;;;;4952863;28;20238;-63
2022/08/26 13:55:26;;;;;;;9.52;7.90;;;;;;;;;;4953801;28;20242;-61
2022/08/26 13:57:53;;;;;;;10.35;8.75;;;;;;;;;;4945224;28;20231;-61
2022/08/26 14:00:19;;;;;;;9.60;8.70;;;;;;;;;;4958496;28;20239;-61
2022/08/26 14:02:45;;;;;;;12.88;9.00;;;;;;;;;;4952779;28;20239;-60
2022/08/26 14:05:12;;;;;;;12.15;8.45;;;;;;;;;;4955246;28;20243;-61
2022/08/26 14:07:38;;;;;;;9.60;8.00;;;;;;;;;;4954981;28;20238;-61
2022/08/26 14:10:07;;;;;;;10.02;8.63;;;;;;;;;;4950331;28;20362;-62
2022/08/26 14:12:33;;;;;;;13.45;9.00;;;;;;;;;;4945111;28;20246;-60
2022/08/26 14:14:59;;;;;;;14.00;10.85;;;;;;;;;;4958006;28;20324;-58
2022/08/26 14:17:26;;;;;;;13.50;11.38;;;;;;;;;;4954193;28;21991;-60
2022/08/26 14:19:52;;;;;;;14.55;10.90;;;;;;;;;;4952759;28;20243;-59
2022/08/26 14:22:20;;;;;;;14.45;10.57;;;;;;;;;;4961663;28;20382;-61
2022/08/26 14:24:46;;;;;;;12.57;10.60;;;;;;;;;;4955475;28;20326;-66
2022/08/26 14:27:14;;;;;;;11.25;10.20;;;;;;;;;;4959747;28;20744;-66
2022/08/26 14:29:40;;;;;;;16.02;10.82;;;;;;;;;;4956789;28;20238;-60
2022/08/26 14:32:10;;;;;;;11.95;10.05;;;;;;;;;;4954614;28;20234;-59
2022/08/26 14:34:36;;;;;;;17.48;9.85;;;;;;;;;;4944102;28;20258;-58
2022/08/26 14:37:05;;;;;;;10.73;9.57;;;;;;;;;;4956349;28;20239;-61
2022/08/26 14:39:32;;;;;;;11.77;10.25;;;;;;;;;;4957729;28;20230;-61
2022/08/26 14:41:59;;;;;;;10.55;9.60;;;;;;;;;;4953820;28;20302;-60
2022/08/26 14:44:28;;;;;;;14.63;10.25;;;;;;;;;;4956930;28;20285;-59
2022/08/26 14:46:54;;;;;;;9.13;8.30;;;;;;;;;;4959806;28;20309;-59